sensor_id;sensor_type;location;lat;lon;timestamp;temperature;humidity
32201;DHT22;18701;45.588;5.288;2023-07-20T00:00:49;24.30;99.90
32201;DHT22;18701;45.588;5.288;2023-07-20T00:03:19;24.40;99.90
32201;DHT22;18701;45.588;5.288;2023-07-20T00:05:50;24.30;99.90
32201;DHT22;18701;45.588;5.288;2023-07-20T00:08:17;24.30;99.90
32201;DHT22;18701;45.588;5.288;2023-07-20T00:10:42;24.20;99.90
32201;DHT22;18701;45.588;5.288;2023-07-20T00:13:09;24.20;99.90
32201;DHT22;18701;45.588;5.288;2023-07-20T00:15:35;23.50;99.90
32201;DHT22;18701;45.588;5.288;2023-07-20T00:18:01;23.70;99.90
32201;DHT22;18701;45.588;5.288;2023-07-20T00:20:26;23.40;99.90
32201;DHT22;18701;45.588;5.288;2023-07-20T00:22:52;23.80;99.90
32201;DHT22;18701;45.588;5.288;2023-07-20T00:25:18;23.80;99.90
32201;DHT22;18701;45.588;5.288;2023-07-20T00:27:44;23.90;99.90
32201;DHT22;18701;45.588;5.288;2023-07-20T00:30:10;23.80;99.90
32201;DHT22;18701;45.588;5.288;2023-07-20T00:32:35;23.80;99.90
32201;DHT22;18701;45.588;5.288;2023-07-20T00:35:01;23.70;99.90
32201;DHT22;18701;45.588;5.288;2023-07-20T00:37:27;23.50;99.90
32201;DHT22;18701;45.588;5.288;2023-07-20T00:39:53;23.70;99.90
32201;DHT22;18701;45.588;5.288;2023-07-20T00:42:18;23.80;99.90
32201;DHT22;18701;45.588;5.288;2023-07-20T00:44:44;23.50;99.90
32201;DHT22;18701;45.588;5.288;2023-07-20T00:47:10;23.80;99.90
32201;DHT22;18701;45.588;5.288;2023-07-20T00:49:35;22.60;99.90
32201;DHT22;18701;45.588;5.288;2023-07-20T00:52:03;23.20;99.90
32201;DHT22;18701;45.588;5.288;2023-07-20T00:54:30;23.30;99.90
32201;DHT22;18701;45.588;5.288;2023-07-20T00:56:55;23.20;99.90
32201;DHT22;18701;45.588;5.288;2023-07-20T00:59:21;23.20;99.90
32201;DHT22;18701;45.588;5.288;2023-07-20T01:01:47;23.60;99.90
32201;DHT22;18701;45.588;5.288;2023-07-20T01:04:13;23.50;99.90
32201;DHT22;18701;45.588;5.288;2023-07-20T01:09:18;23.60;99.90
32201;DHT22;18701;45.588;5.288;2023-07-20T01:12:02;23.60;99.90
32201;DHT22;18701;45.588;5.288;2023-07-20T01:14:31;23.50;99.90
32201;DHT22;18701;45.588;5.288;2023-07-20T01:16:58;23.40;99.90
32201;DHT22;18701;45.588;5.288;2023-07-20T01:19:23;23.40;99.90
32201;DHT22;18701;45.588;5.288;2023-07-20T01:30:14;23.00;99.90
32201;DHT22;18701;45.588;5.288;2023-07-20T01:32:43;22.50;99.90
32201;DHT22;18701;45.588;5.288;2023-07-20T01:35:11;22.80;99.90
32201;DHT22;18701;45.588;5.288;2023-07-20T01:37:42;23.00;99.90
32201;DHT22;18701;45.588;5.288;2023-07-20T01:40:10;22.80;99.90
32201;DHT22;18701;45.588;5.288;2023-07-20T01:42:36;23.00;99.90
32201;DHT22;18701;45.588;5.288;2023-07-20T01:45:01;23.10;99.90
32201;DHT22;18701;45.588;5.288;2023-07-20T01:47:27;23.20;99.90
32201;DHT22;18701;45.588;5.288;2023-07-20T01:49:52;23.30;99.90
32201;DHT22;18701;45.588;5.288;2023-07-20T01:52:18;23.30;99.90
32201;DHT22;18701;45.588;5.288;2023-07-20T01:54:43;23.30;99.90
32201;DHT22;18701;45.588;5.288;2023-07-20T01:57:09;23.10;99.90
32201;DHT22;18701;45.588;5.288;2023-07-20T01:59:34;23.00;99.90
32201;DHT22;18701;45.588;5.288;2023-07-20T02:02:00;22.90;99.90
32201;DHT22;18701;45.588;5.288;2023-07-20T02:04:26;22.80;99.90
32201;DHT22;18701;45.588;5.288;2023-07-20T02:06:51;22.70;99.90
32201;DHT22;18701;45.588;5.288;2023-07-20T02:09:17;23.00;99.90
32201;DHT22;18701;45.588;5.288;2023-07-20T02:11:42;23.10;99.90
32201;DHT22;18701;45.588;5.288;2023-07-20T02:14:08;22.90;99.90
32201;DHT22;18701;45.588;5.288;2023-07-20T02:16:33;22.50;99.90
32201;DHT22;18701;45.588;5.288;2023-07-20T02:18:59;22.80;99.90
32201;DHT22;18701;45.588;5.288;2023-07-20T02:21:24;22.90;99.90
32201;DHT22;18701;45.588;5.288;2023-07-20T02:23:50;22.40;99.90
32201;DHT22;18701;45.588;5.288;2023-07-20T02:26:16;22.50;99.90
32201;DHT22;18701;45.588;5.288;2023-07-20T02:28:41;22.80;99.90
32201;DHT22;18701;45.588;5.288;2023-07-20T02:31:07;23.00;99.90
32201;DHT22;18701;45.588;5.288;2023-07-20T02:33:33;23.00;99.90
32201;DHT22;18701;45.588;5.288;2023-07-20T02:35:58;23.00;99.90
32201;DHT22;18701;45.588;5.288;2023-07-20T02:38:24;22.60;99.90
32201;DHT22;18701;45.588;5.288;2023-07-20T02:40:50;22.30;99.90
32201;DHT22;18701;45.588;5.288;2023-07-20T02:43:16;22.40;99.90
32201;DHT22;18701;45.588;5.288;2023-07-20T02:45:41;22.50;99.90
32201;DHT22;18701;45.588;5.288;2023-07-20T02:48:10;22.30;99.90
32201;DHT22;18701;45.588;5.288;2023-07-20T02:50:35;22.30;99.90
32201;DHT22;18701;45.588;5.288;2023-07-20T02:53:02;22.40;99.90
32201;DHT22;18701;45.588;5.288;2023-07-20T02:55:28;22.50;99.90
32201;DHT22;18701;45.588;5.288;2023-07-20T02:57:53;22.50;99.90
32201;DHT22;18701;45.588;5.288;2023-07-20T03:00:19;22.50;99.90
32201;DHT22;18701;45.588;5.288;2023-07-20T03:02:46;22.30;99.90
32201;DHT22;18701;45.588;5.288;2023-07-20T03:05:13;22.30;99.90
32201;DHT22;18701;45.588;5.288;2023-07-20T03:07:39;22.10;99.90
32201;DHT22;18701;45.588;5.288;2023-07-20T03:10:05;22.00;99.90
32201;DHT22;18701;45.588;5.288;2023-07-20T03:12:35;22.10;99.90
32201;DHT22;18701;45.588;5.288;2023-07-20T03:15:02;22.00;99.90
32201;DHT22;18701;45.588;5.288;2023-07-20T03:17:27;21.90;99.90
32201;DHT22;18701;45.588;5.288;2023-07-20T03:19:53;22.30;99.90
32201;DHT22;18701;45.588;5.288;2023-07-20T03:22:19;22.10;99.90
32201;DHT22;18701;45.588;5.288;2023-07-20T03:24:44;21.90;99.90
32201;DHT22;18701;45.588;5.288;2023-07-20T03:27:10;21.90;99.90
32201;DHT22;18701;45.588;5.288;2023-07-20T03:29:35;22.00;99.90
32201;DHT22;18701;45.588;5.288;2023-07-20T03:32:01;22.20;99.90
32201;DHT22;18701;45.588;5.288;2023-07-20T03:34:27;22.50;99.90
32201;DHT22;18701;45.588;5.288;2023-07-20T03:36:52;22.60;99.90
32201;DHT22;18701;45.588;5.288;2023-07-20T03:39:18;22.40;99.90
32201;DHT22;18701;45.588;5.288;2023-07-20T03:41:43;22.40;99.90
32201;DHT22;18701;45.588;5.288;2023-07-20T03:44:09;22.30;99.90
32201;DHT22;18701;45.588;5.288;2023-07-20T03:46:34;22.30;99.90
32201;DHT22;18701;45.588;5.288;2023-07-20T03:49:00;22.20;99.90
32201;DHT22;18701;45.588;5.288;2023-07-20T03:51:26;22.30;99.90
32201;DHT22;18701;45.588;5.288;2023-07-20T03:53:52;22.20;99.90
32201;DHT22;18701;45.588;5.288;2023-07-20T03:56:17;22.30;99.90
32201;DHT22;18701;45.588;5.288;2023-07-20T03:58:43;22.30;99.90
32201;DHT22;18701;45.588;5.288;2023-07-20T04:01:08;22.30;99.90
32201;DHT22;18701;45.588;5.288;2023-07-20T04:03:35;22.10;99.90
32201;DHT22;18701;45.588;5.288;2023-07-20T04:06:01;22.10;99.90
32201;DHT22;18701;45.588;5.288;2023-07-20T04:08:27;22.10;99.90
32201;DHT22;18701;45.588;5.288;2023-07-20T04:10:53;22.10;99.90
32201;DHT22;18701;45.588;5.288;2023-07-20T04:13:18;22.00;99.90
32201;DHT22;18701;45.588;5.288;2023-07-20T04:15:44;21.70;99.90
32201;DHT22;18701;45.588;5.288;2023-07-20T04:18:10;21.90;99.90
32201;DHT22;18701;45.588;5.288;2023-07-20T04:20:35;21.90;99.90
32201;DHT22;18701;45.588;5.288;2023-07-20T04:23:01;21.60;99.90
32201;DHT22;18701;45.588;5.288;2023-07-20T04:25:27;21.60;99.90
32201;DHT22;18701;45.588;5.288;2023-07-20T04:27:52;21.60;99.90
32201;DHT22;18701;45.588;5.288;2023-07-20T04:30:19;21.50;99.90
32201;DHT22;18701;45.588;5.288;2023-07-20T04:32:46;21.60;99.90
32201;DHT22;18701;45.588;5.288;2023-07-20T04:35:51;21.40;99.90
32201;DHT22;18701;45.588;5.288;2023-07-20T04:38:17;21.50;99.90
32201;DHT22;18701;45.588;5.288;2023-07-20T04:40:48;21.60;99.90
32201;DHT22;18701;45.588;5.288;2023-07-20T04:43:14;21.60;99.90
32201;DHT22;18701;45.588;5.288;2023-07-20T04:45:40;21.70;99.90
32201;DHT22;18701;45.588;5.288;2023-07-20T04:48:13;21.70;99.90
32201;DHT22;18701;45.588;5.288;2023-07-20T04:50:44;21.70;99.90
32201;DHT22;18701;45.588;5.288;2023-07-20T04:53:13;21.50;99.90
32201;DHT22;18701;45.588;5.288;2023-07-20T04:55:39;21.60;99.90
32201;DHT22;18701;45.588;5.288;2023-07-20T04:58:06;21.70;99.90
32201;DHT22;18701;45.588;5.288;2023-07-20T05:00:33;21.70;99.90
32201;DHT22;18701;45.588;5.288;2023-07-20T05:02:58;21.70;99.90
32201;DHT22;18701;45.588;5.288;2023-07-20T05:05:24;21.70;99.90
32201;DHT22;18701;45.588;5.288;2023-07-20T05:07:50;21.80;99.90
32201;DHT22;18701;45.588;5.288;2023-07-20T05:10:16;21.70;99.90
32201;DHT22;18701;45.588;5.288;2023-07-20T05:12:41;21.70;99.90
32201;DHT22;18701;45.588;5.288;2023-07-20T05:15:07;21.50;99.90
32201;DHT22;18701;45.588;5.288;2023-07-20T05:17:33;21.80;99.90
32201;DHT22;18701;45.588;5.288;2023-07-20T05:19:58;21.70;99.90
32201;DHT22;18701;45.588;5.288;2023-07-20T05:22:24;21.20;99.90
32201;DHT22;18701;45.588;5.288;2023-07-20T05:24:50;21.50;99.90
32201;DHT22;18701;45.588;5.288;2023-07-20T05:27:16;21.50;99.90
32201;DHT22;18701;45.588;5.288;2023-07-20T05:29:45;21.40;99.90
32201;DHT22;18701;45.588;5.288;2023-07-20T05:32:12;21.30;99.90
32201;DHT22;18701;45.588;5.288;2023-07-20T05:34:37;21.60;99.90
32201;DHT22;18701;45.588;5.288;2023-07-20T05:37:03;21.20;99.90
32201;DHT22;18701;45.588;5.288;2023-07-20T05:39:28;21.20;99.90
32201;DHT22;18701;45.588;5.288;2023-07-20T05:41:54;21.30;99.90
32201;DHT22;18701;45.588;5.288;2023-07-20T05:44:20;21.20;99.90
32201;DHT22;18701;45.588;5.288;2023-07-20T05:46:45;21.40;99.90
32201;DHT22;18701;45.588;5.288;2023-07-20T05:49:11;21.50;99.90
32201;DHT22;18701;45.588;5.288;2023-07-20T05:51:36;21.50;99.90
32201;DHT22;18701;45.588;5.288;2023-07-20T05:54:02;21.70;99.90
32201;DHT22;18701;45.588;5.288;2023-07-20T05:56:28;21.20;99.90
32201;DHT22;18701;45.588;5.288;2023-07-20T05:58:53;21.50;99.90
32201;DHT22;18701;45.588;5.288;2023-07-20T06:01:19;21.50;99.90
32201;DHT22;18701;45.588;5.288;2023-07-20T06:03:44;21.40;99.90
32201;DHT22;18701;45.588;5.288;2023-07-20T06:06:10;21.40;99.90
32201;DHT22;18701;45.588;5.288;2023-07-20T06:08:37;21.80;99.90
32201;DHT22;18701;45.588;5.288;2023-07-20T06:11:03;21.60;99.90
32201;DHT22;18701;45.588;5.288;2023-07-20T06:13:29;21.50;99.90
32201;DHT22;18701;45.588;5.288;2023-07-20T06:15:55;21.30;99.90
32201;DHT22;18701;45.588;5.288;2023-07-20T06:18:23;21.20;99.90
32201;DHT22;18701;45.588;5.288;2023-07-20T06:20:52;21.30;99.90
32201;DHT22;18701;45.588;5.288;2023-07-20T06:23:21;21.30;99.90
32201;DHT22;18701;45.588;5.288;2023-07-20T06:25:46;21.40;99.90
32201;DHT22;18701;45.588;5.288;2023-07-20T06:28:13;21.60;99.90
32201;DHT22;18701;45.588;5.288;2023-07-20T06:30:39;21.70;99.90
32201;DHT22;18701;45.588;5.288;2023-07-20T06:33:05;21.70;99.90
32201;DHT22;18701;45.588;5.288;2023-07-20T06:35:30;21.80;99.90
32201;DHT22;18701;45.588;5.288;2023-07-20T06:37:56;21.60;99.90
32201;DHT22;18701;45.588;5.288;2023-07-20T06:40:23;21.50;99.90
32201;DHT22;18701;45.588;5.288;2023-07-20T06:42:48;21.80;99.90
32201;DHT22;18701;45.588;5.288;2023-07-20T06:45:14;21.90;99.90
32201;DHT22;18701;45.588;5.288;2023-07-20T06:47:39;21.80;99.90
32201;DHT22;18701;45.588;5.288;2023-07-20T06:50:06;21.80;99.90
32201;DHT22;18701;45.588;5.288;2023-07-20T06:52:32;21.80;99.90
32201;DHT22;18701;45.588;5.288;2023-07-20T06:54:58;21.70;99.90
32201;DHT22;18701;45.588;5.288;2023-07-20T06:57:24;21.60;99.90
32201;DHT22;18701;45.588;5.288;2023-07-20T06:59:50;21.60;99.90
32201;DHT22;18701;45.588;5.288;2023-07-20T07:02:15;21.80;99.90
32201;DHT22;18701;45.588;5.288;2023-07-20T07:04:41;22.00;99.90
32201;DHT22;18701;45.588;5.288;2023-07-20T07:07:07;22.00;99.90
32201;DHT22;18701;45.588;5.288;2023-07-20T07:09:34;22.30;99.90
32201;DHT22;18701;45.588;5.288;2023-07-20T07:11:59;22.20;99.90
32201;DHT22;18701;45.588;5.288;2023-07-20T07:14:25;22.50;99.90
32201;DHT22;18701;45.588;5.288;2023-07-20T07:16:50;22.60;99.90
32201;DHT22;18701;45.588;5.288;2023-07-20T07:19:16;22.60;99.90
32201;DHT22;18701;45.588;5.288;2023-07-20T07:21:41;22.70;99.90
32201;DHT22;18701;45.588;5.288;2023-07-20T07:24:07;22.60;99.90
32201;DHT22;18701;45.588;5.288;2023-07-20T07:26:33;22.60;99.90
32201;DHT22;18701;45.588;5.288;2023-07-20T07:28:59;22.80;99.90
32201;DHT22;18701;45.588;5.288;2023-07-20T07:31:29;23.20;99.90
32201;DHT22;18701;45.588;5.288;2023-07-20T07:33:55;23.10;99.90
32201;DHT22;18701;45.588;5.288;2023-07-20T07:36:21;22.90;99.90
32201;DHT22;18701;45.588;5.288;2023-07-20T07:38:47;23.10;99.90
32201;DHT22;18701;45.588;5.288;2023-07-20T07:41:13;23.10;99.90
32201;DHT22;18701;45.588;5.288;2023-07-20T07:43:39;23.10;99.90
32201;DHT22;18701;45.588;5.288;2023-07-20T07:46:05;23.30;99.90
32201;DHT22;18701;45.588;5.288;2023-07-20T07:48:30;23.20;99.90
32201;DHT22;18701;45.588;5.288;2023-07-20T07:50:56;23.40;99.90
32201;DHT22;18701;45.588;5.288;2023-07-20T07:53:21;23.20;99.90
32201;DHT22;18701;45.588;5.288;2023-07-20T07:55:50;23.20;99.90
32201;DHT22;18701;45.588;5.288;2023-07-20T07:58:15;23.30;99.90
32201;DHT22;18701;45.588;5.288;2023-07-20T08:00:41;23.70;99.90
32201;DHT22;18701;45.588;5.288;2023-07-20T08:03:08;23.40;99.90
32201;DHT22;18701;45.588;5.288;2023-07-20T08:05:34;23.40;99.90
32201;DHT22;18701;45.588;5.288;2023-07-20T08:08:03;23.70;99.90
32201;DHT22;18701;45.588;5.288;2023-07-20T08:10:29;23.80;99.90
32201;DHT22;18701;45.588;5.288;2023-07-20T08:12:55;23.80;99.90
32201;DHT22;18701;45.588;5.288;2023-07-20T08:15:21;23.80;99.90
32201;DHT22;18701;45.588;5.288;2023-07-20T08:17:47;23.90;99.90
32201;DHT22;18701;45.588;5.288;2023-07-20T08:20:13;24.10;99.90
32201;DHT22;18701;45.588;5.288;2023-07-20T08:22:40;24.00;99.90
32201;DHT22;18701;45.588;5.288;2023-07-20T08:25:06;24.00;99.90
32201;DHT22;18701;45.588;5.288;2023-07-20T08:27:32;24.00;99.90
32201;DHT22;18701;45.588;5.288;2023-07-20T08:29:57;24.30;99.90
32201;DHT22;18701;45.588;5.288;2023-07-20T08:32:23;24.20;99.90
32201;DHT22;18701;45.588;5.288;2023-07-20T08:34:48;24.50;99.90
32201;DHT22;18701;45.588;5.288;2023-07-20T08:37:14;24.30;99.90
32201;DHT22;18701;45.588;5.288;2023-07-20T08:39:40;24.50;99.90
32201;DHT22;18701;45.588;5.288;2023-07-20T08:42:06;24.80;99.90
32201;DHT22;18701;45.588;5.288;2023-07-20T08:44:33;24.70;99.90
32201;DHT22;18701;45.588;5.288;2023-07-20T08:47:00;24.90;99.90
32201;DHT22;18701;45.588;5.288;2023-07-20T08:49:28;24.80;99.90
32201;DHT22;18701;45.588;5.288;2023-07-20T08:51:54;24.80;99.90
32201;DHT22;18701;45.588;5.288;2023-07-20T08:54:20;25.00;99.90
32201;DHT22;18701;45.588;5.288;2023-07-20T08:56:45;25.20;99.90
32201;DHT22;18701;45.588;5.288;2023-07-20T08:59:14;25.10;99.90
32201;DHT22;18701;45.588;5.288;2023-07-20T09:01:41;25.20;99.90
32201;DHT22;18701;45.588;5.288;2023-07-20T09:04:07;25.30;99.90
32201;DHT22;18701;45.588;5.288;2023-07-20T09:06:32;25.10;99.90
32201;DHT22;18701;45.588;5.288;2023-07-20T09:09:00;25.30;99.90
32201;DHT22;18701;45.588;5.288;2023-07-20T09:11:26;25.60;99.90
32201;DHT22;18701;45.588;5.288;2023-07-20T09:14:08;25.70;99.90
32201;DHT22;18701;45.588;5.288;2023-07-20T09:16:51;25.60;99.90
32201;DHT22;18701;45.588;5.288;2023-07-20T09:19:17;25.50;99.90
32201;DHT22;18701;45.588;5.288;2023-07-20T09:21:50;25.90;99.90
32201;DHT22;18701;45.588;5.288;2023-07-20T09:24:20;25.90;99.90
32201;DHT22;18701;45.588;5.288;2023-07-20T09:26:47;25.70;99.90
32201;DHT22;18701;45.588;5.288;2023-07-20T09:29:19;25.60;99.90
32201;DHT22;18701;45.588;5.288;2023-07-20T09:34:24;26.10;99.90
32201;DHT22;18701;45.588;5.288;2023-07-20T09:36:51;25.70;99.90
32201;DHT22;18701;45.588;5.288;2023-07-20T09:39:16;25.80;99.90
32201;DHT22;18701;45.588;5.288;2023-07-20T09:41:42;26.10;99.90
32201;DHT22;18701;45.588;5.288;2023-07-20T09:44:08;26.30;99.90
32201;DHT22;18701;45.588;5.288;2023-07-20T09:46:45;26.70;99.90
32201;DHT22;18701;45.588;5.288;2023-07-20T09:49:11;26.70;99.90
32201;DHT22;18701;45.588;5.288;2023-07-20T09:51:37;26.30;99.90
32201;DHT22;18701;45.588;5.288;2023-07-20T09:54:04;26.50;99.70
32201;DHT22;18701;45.588;5.288;2023-07-20T09:56:30;26.70;99.90
32201;DHT22;18701;45.588;5.288;2023-07-20T09:58:56;26.80;99.60
32201;DHT22;18701;45.588;5.288;2023-07-20T10:01:22;26.90;99.40
32201;DHT22;18701;45.588;5.288;2023-07-20T10:03:51;26.40;99.50
32201;DHT22;18701;45.588;5.288;2023-07-20T10:06:23;26.00;99.30
32201;DHT22;18701;45.588;5.288;2023-07-20T10:08:52;25.90;99.00
32201;DHT22;18701;45.588;5.288;2023-07-20T10:11:19;26.10;99.60
32201;DHT22;18701;45.588;5.288;2023-07-20T10:13:51;26.50;99.20
32201;DHT22;18701;45.588;5.288;2023-07-20T10:16:28;26.80;99.50
32201;DHT22;18701;45.588;5.288;2023-07-20T10:21:23;26.20;99.00
32201;DHT22;18701;45.588;5.288;2023-07-20T10:23:49;26.50;98.70
32201;DHT22;18701;45.588;5.288;2023-07-20T10:26:15;26.80;98.70
32201;DHT22;18701;45.588;5.288;2023-07-20T10:28:41;26.90;99.00
32201;DHT22;18701;45.588;5.288;2023-07-20T10:31:12;27.10;98.80
32201;DHT22;18701;45.588;5.288;2023-07-20T10:33:38;26.90;97.90
32201;DHT22;18701;45.588;5.288;2023-07-20T10:36:05;26.90;98.40
32201;DHT22;18701;45.588;5.288;2023-07-20T10:43:59;26.90;97.00
32201;DHT22;18701;45.588;5.288;2023-07-20T10:49:05;27.30;97.80
32201;DHT22;18701;45.588;5.288;2023-07-20T10:51:42;27.70;98.50
32201;DHT22;18701;45.588;5.288;2023-07-20T10:54:33;27.40;96.90
32201;DHT22;18701;45.588;5.288;2023-07-20T10:57:21;27.70;97.70
32201;DHT22;18701;45.588;5.288;2023-07-20T10:59:47;27.90;96.70
32201;DHT22;18701;45.588;5.288;2023-07-20T11:02:12;27.70;96.80
32201;DHT22;18701;45.588;5.288;2023-07-20T11:04:42;28.10;96.90
32201;DHT22;18701;45.588;5.288;2023-07-20T11:07:09;28.10;95.50
32201;DHT22;18701;45.588;5.288;2023-07-20T11:09:38;28.20;96.00
32201;DHT22;18701;45.588;5.288;2023-07-20T11:12:15;28.50;96.20
32201;DHT22;18701;45.588;5.288;2023-07-20T11:14:42;28.60;95.50
32201;DHT22;18701;45.588;5.288;2023-07-20T11:17:15;28.40;95.10
32201;DHT22;18701;45.588;5.288;2023-07-20T11:19:41;28.40;95.40
32201;DHT22;18701;45.588;5.288;2023-07-20T11:22:07;28.70;96.20
32201;DHT22;18701;45.588;5.288;2023-07-20T11:24:34;28.70;95.20
32201;DHT22;18701;45.588;5.288;2023-07-20T11:27:00;28.40;94.40
32201;DHT22;18701;45.588;5.288;2023-07-20T11:29:28;28.30;94.00
32201;DHT22;18701;45.588;5.288;2023-07-20T11:31:54;29.00;95.10
32201;DHT22;18701;45.588;5.288;2023-07-20T11:34:21;28.90;94.00
32201;DHT22;18701;45.588;5.288;2023-07-20T11:36:48;28.70;94.20
32201;DHT22;18701;45.588;5.288;2023-07-20T11:39:18;29.00;93.70
32201;DHT22;18701;45.588;5.288;2023-07-20T11:41:47;28.80;93.60
32201;DHT22;18701;45.588;5.288;2023-07-20T11:44:13;29.20;94.40
32201;DHT22;18701;45.588;5.288;2023-07-20T11:46:41;29.60;95.00
32201;DHT22;18701;45.588;5.288;2023-07-20T11:49:10;29.90;94.10
32201;DHT22;18701;45.588;5.288;2023-07-20T11:51:37;29.50;92.70
32201;DHT22;18701;45.588;5.288;2023-07-20T11:54:04;29.40;92.30
32201;DHT22;18701;45.588;5.288;2023-07-20T11:56:30;29.30;93.00
32201;DHT22;18701;45.588;5.288;2023-07-20T11:58:57;29.60;92.70
32201;DHT22;18701;45.588;5.288;2023-07-20T12:01:26;29.70;92.10
32201;DHT22;18701;45.588;5.288;2023-07-20T12:03:56;29.10;92.20
32201;DHT22;18701;45.588;5.288;2023-07-20T12:06:25;29.20;92.50
32201;DHT22;18701;45.588;5.288;2023-07-20T12:08:55;29.50;93.00
32201;DHT22;18701;45.588;5.288;2023-07-20T12:11:37;29.50;92.10
32201;DHT22;18701;45.588;5.288;2023-07-20T12:14:04;29.30;92.30
32201;DHT22;18701;45.588;5.288;2023-07-20T12:16:31;29.50;92.40
32201;DHT22;18701;45.588;5.288;2023-07-20T12:19:07;30.10;92.30
32201;DHT22;18701;45.588;5.288;2023-07-20T12:21:37;30.20;92.50
32201;DHT22;18701;45.588;5.288;2023-07-20T12:24:03;29.50;92.20
32201;DHT22;18701;45.588;5.288;2023-07-20T12:26:30;29.80;91.90
32201;DHT22;18701;45.588;5.288;2023-07-20T12:28:55;29.50;92.00
32201;DHT22;18701;45.588;5.288;2023-07-20T12:31:22;29.90;91.90
32201;DHT22;18701;45.588;5.288;2023-07-20T12:33:50;29.90;91.10
32201;DHT22;18701;45.588;5.288;2023-07-20T12:36:17;29.80;91.80
32201;DHT22;18701;45.588;5.288;2023-07-20T12:38:42;30.40;91.20
32201;DHT22;18701;45.588;5.288;2023-07-20T12:41:10;30.40;90.80
32201;DHT22;18701;45.588;5.288;2023-07-20T12:43:37;30.00;90.40
32201;DHT22;18701;45.588;5.288;2023-07-20T12:46:03;29.90;91.40
32201;DHT22;18701;45.588;5.288;2023-07-20T12:48:29;30.10;89.70
32201;DHT22;18701;45.588;5.288;2023-07-20T12:50:54;30.40;89.60
32201;DHT22;18701;45.588;5.288;2023-07-20T12:53:20;30.30;89.50
32201;DHT22;18701;45.588;5.288;2023-07-20T12:55:47;30.10;90.10
32201;DHT22;18701;45.588;5.288;2023-07-20T12:58:13;29.60;90.50
32201;DHT22;18701;45.588;5.288;2023-07-20T13:00:39;30.20;90.40
32201;DHT22;18701;45.588;5.288;2023-07-20T13:03:05;30.50;90.40
32201;DHT22;18701;45.588;5.288;2023-07-20T13:05:32;31.10;90.80
32201;DHT22;18701;45.588;5.288;2023-07-20T13:07:58;30.80;88.40
32201;DHT22;18701;45.588;5.288;2023-07-20T13:10:24;31.30;89.90
32201;DHT22;18701;45.588;5.288;2023-07-20T13:12:50;31.30;89.80
32201;DHT22;18701;45.588;5.288;2023-07-20T13:15:17;30.80;86.60
32201;DHT22;18701;45.588;5.288;2023-07-20T13:17:42;30.80;86.70
32201;DHT22;18701;45.588;5.288;2023-07-20T13:20:10;31.10;87.50
32201;DHT22;18701;45.588;5.288;2023-07-20T13:22:37;31.10;86.60
32201;DHT22;18701;45.588;5.288;2023-07-20T13:25:03;31.10;86.30
32201;DHT22;18701;45.588;5.288;2023-07-20T13:27:28;31.10;84.90
32201;DHT22;18701;45.588;5.288;2023-07-20T13:29:55;30.70;86.30
32201;DHT22;18701;45.588;5.288;2023-07-20T13:32:22;31.10;85.70
32201;DHT22;18701;45.588;5.288;2023-07-20T13:34:48;30.90;85.10
32201;DHT22;18701;45.588;5.288;2023-07-20T13:37:14;31.60;85.50
32201;DHT22;18701;45.588;5.288;2023-07-20T13:39:40;30.90;85.60
32201;DHT22;18701;45.588;5.288;2023-07-20T13:42:06;30.70;84.50
32201;DHT22;18701;45.588;5.288;2023-07-20T13:44:32;31.00;86.80
32201;DHT22;18701;45.588;5.288;2023-07-20T13:46:58;31.30;85.40
32201;DHT22;18701;45.588;5.288;2023-07-20T13:49:23;31.50;84.50
32201;DHT22;18701;45.588;5.288;2023-07-20T13:51:49;31.80;83.00
32201;DHT22;18701;45.588;5.288;2023-07-20T13:54:16;31.30;83.80
32201;DHT22;18701;45.588;5.288;2023-07-20T13:56:42;31.80;85.20
32201;DHT22;18701;45.588;5.288;2023-07-20T13:59:07;31.80;84.00
32201;DHT22;18701;45.588;5.288;2023-07-20T14:01:33;31.50;83.90
32201;DHT22;18701;45.588;5.288;2023-07-20T14:04:00;32.10;85.10
32201;DHT22;18701;45.588;5.288;2023-07-20T14:06:27;31.60;83.10
32201;DHT22;18701;45.588;5.288;2023-07-20T14:08:53;31.30;83.10
32201;DHT22;18701;45.588;5.288;2023-07-20T14:11:18;30.40;83.40
32201;DHT22;18701;45.588;5.288;2023-07-20T14:13:44;31.00;84.20
32201;DHT22;18701;45.588;5.288;2023-07-20T14:16:10;31.80;84.20
32201;DHT22;18701;45.588;5.288;2023-07-20T14:18:36;32.30;82.80
32201;DHT22;18701;45.588;5.288;2023-07-20T14:21:02;32.20;80.70
32201;DHT22;18701;45.588;5.288;2023-07-20T14:23:28;31.60;81.30
32201;DHT22;18701;45.588;5.288;2023-07-20T14:25:54;31.40;80.00
32201;DHT22;18701;45.588;5.288;2023-07-20T14:28:20;31.30;81.10
32201;DHT22;18701;45.588;5.288;2023-07-20T14:30:46;31.10;80.50
32201;DHT22;18701;45.588;5.288;2023-07-20T14:33:12;31.10;79.70
32201;DHT22;18701;45.588;5.288;2023-07-20T14:35:37;31.20;80.50
32201;DHT22;18701;45.588;5.288;2023-07-20T14:38:03;31.70;80.90
32201;DHT22;18701;45.588;5.288;2023-07-20T14:40:29;31.80;80.50
32201;DHT22;18701;45.588;5.288;2023-07-20T14:42:55;32.00;79.70
32201;DHT22;18701;45.588;5.288;2023-07-20T14:45:21;32.00;82.90
32201;DHT22;18701;45.588;5.288;2023-07-20T14:47:47;32.30;80.40
32201;DHT22;18701;45.588;5.288;2023-07-20T14:50:19;32.10;78.40
32201;DHT22;18701;45.588;5.288;2023-07-20T14:52:45;31.30;78.80
32201;DHT22;18701;45.588;5.288;2023-07-20T14:55:10;31.70;80.00
32201;DHT22;18701;45.588;5.288;2023-07-20T14:57:36;31.40;80.40
32201;DHT22;18701;45.588;5.288;2023-07-20T15:00:03;31.20;80.50
32201;DHT22;18701;45.588;5.288;2023-07-20T15:02:33;31.30;78.00
32201;DHT22;18701;45.588;5.288;2023-07-20T15:04:59;31.30;78.60
32201;DHT22;18701;45.588;5.288;2023-07-20T15:07:25;31.80;78.90
32201;DHT22;18701;45.588;5.288;2023-07-20T15:09:51;31.10;79.00
32201;DHT22;18701;45.588;5.288;2023-07-20T15:12:16;32.00;79.00
32201;DHT22;18701;45.588;5.288;2023-07-20T15:14:43;31.30;78.20
32201;DHT22;18701;45.588;5.288;2023-07-20T15:17:09;30.80;78.00
32201;DHT22;18701;45.588;5.288;2023-07-20T15:19:35;30.80;79.20
32201;DHT22;18701;45.588;5.288;2023-07-20T15:22:02;30.60;78.70
32201;DHT22;18701;45.588;5.288;2023-07-20T15:24:29;30.50;79.00
32201;DHT22;18701;45.588;5.288;2023-07-20T15:26:54;30.90;78.00
32201;DHT22;18701;45.588;5.288;2023-07-20T15:29:20;30.90;79.10
32201;DHT22;18701;45.588;5.288;2023-07-20T15:31:46;31.00;76.80
32201;DHT22;18701;45.588;5.288;2023-07-20T15:34:12;30.80;78.20
32201;DHT22;18701;45.588;5.288;2023-07-20T15:36:39;31.00;77.70
32201;DHT22;18701;45.588;5.288;2023-07-20T15:39:06;31.60;78.50
32201;DHT22;18701;45.588;5.288;2023-07-20T15:41:31;31.10;77.50
32201;DHT22;18701;45.588;5.288;2023-07-20T15:43:57;31.00;76.50
32201;DHT22;18701;45.588;5.288;2023-07-20T15:48:48;31.90;78.70
32201;DHT22;18701;45.588;5.288;2023-07-20T15:51:14;31.20;77.20
32201;DHT22;18701;45.588;5.288;2023-07-20T15:53:40;31.30;77.60